createdAt,value
2023-12-16T01:11:15.851Z,5.84
2023-12-16T01:16:32.933Z,5.84
2023-12-16T01:21:48.255Z,5.82
2023-12-16T01:40:54.158Z,5.75
2023-12-16T02:13:28.848Z,5.86
2023-12-16T02:24:47.128Z,5.88
2023-12-16T02:51:45.324Z,5.81
2023-12-16T03:51:08.365Z,5.55
2023-12-16T04:29:34.542Z,5.62
2023-12-16T04:43:14.632Z,5.57
2023-12-16T05:10:33.637Z,5.48
2023-12-16T05:13:06.332Z,5.50
2023-12-16T05:15:42.093Z,5.46
2023-12-16T05:23:46.949Z,5.48
2023-12-16T05:26:22.605Z,5.50
2023-12-16T05:31:40.403Z,5.44
2023-12-16T05:34:10.184Z,5.50
2023-12-16T05:50:14.681Z,5.51
2023-12-16T06:01:02.305Z,5.49
2023-12-16T06:03:40.380Z,5.46
2023-12-16T06:11:46.061Z,5.51
2023-12-16T06:19:38.853Z,5.50
2023-12-16T06:22:07.264Z,5.52
2023-12-16T06:24:34.655Z,5.49
2023-12-16T06:35:25.242Z,5.52
2023-12-16T06:46:24.271Z,5.49
2023-12-16T07:13:56.054Z,5.59
2023-12-16T07:27:14.921Z,5.44
2023-12-16T07:35:05.392Z,5.52
2023-12-16T07:37:34.414Z,5.65
2023-12-16T07:53:26.773Z,5.58
2023-12-16T07:55:55.321Z,5.67
2023-12-16T08:01:04.942Z,5.66
2023-12-16T08:09:00.049Z,5.68
2023-12-16T08:14:09.759Z,5.57
2023-12-16T08:19:19.563Z,5.67
2023-12-16T08:21:50.429Z,5.51
2023-12-16T08:24:18.862Z,5.63
2023-12-16T08:26:52.171Z,5.51
2023-12-16T08:34:54.475Z,5.55
2023-12-16T08:37:29.055Z,5.43
2023-12-16T08:39:56.090Z,5.65
2023-12-16T08:42:27.468Z,5.72
2023-12-16T08:44:56.014Z,5.71
2023-12-16T08:50:19.178Z,5.69
2023-12-16T09:37:41.157Z,5.74
2023-12-16T09:51:07.939Z,6.18
2023-12-16T09:53:36.108Z,6.22
2023-12-16T10:01:32.808Z,6.24
2023-12-16T10:23:18.240Z,6.74
2023-12-16T10:25:47.874Z,6.91
2023-12-16T10:28:17.278Z,6.91
2023-12-16T10:30:46.532Z,6.81
2023-12-16T10:41:18.785Z,7.22
2023-12-16T10:43:47.626Z,7.33
2023-12-16T10:46:21.312Z,7.40
2023-12-16T10:48:52.099Z,7.41
2023-12-16T10:51:21.934Z,7.42
2023-12-16T10:54:13.088Z,7.43
2023-12-16T10:56:50.152Z,7.50
2023-12-16T10:59:31.676Z,7.58
2023-12-16T11:10:31.881Z,7.59
2023-12-16T11:48:58.712Z,8.13
2023-12-16T11:57:21.792Z,8.56
2023-12-16T12:17:58.776Z,9.04
2023-12-16T12:40:20.395Z,9.18
2023-12-16T12:42:59.982Z,9.13
2023-12-16T13:33:21.285Z,9.30
2023-12-16T14:29:58.363Z,9.11
2023-12-16T14:32:26.879Z,9.01
2023-12-16T14:34:53.883Z,9.10
2023-12-16T14:37:21.592Z,9.07
2023-12-16T14:39:51.515Z,8.99
2023-12-16T14:42:18.985Z,9.12
2023-12-16T14:44:45.771Z,8.95
2023-12-16T14:47:12.471Z,9.13
2023-12-16T14:49:39.875Z,8.81
2023-12-16T14:52:06.891Z,8.74
2023-12-16T14:54:33.886Z,8.99
2023-12-16T14:57:00.817Z,8.75
2023-12-16T14:59:32.987Z,8.85
2023-12-16T15:04:44.032Z,8.65
2023-12-16T15:07:14.912Z,8.64
2023-12-16T15:09:44.039Z,8.70
2023-12-16T15:12:11.055Z,8.62
2023-12-16T15:14:39.200Z,8.70
2023-12-16T15:17:06.564Z,8.73
2023-12-16T15:19:34.572Z,8.74
2023-12-16T15:22:01.678Z,8.81
2023-12-16T15:24:28.892Z,8.74
2023-12-16T15:26:56.428Z,8.68
2023-12-16T15:29:29.304Z,8.76
2023-12-16T15:31:57.684Z,8.60
2023-12-16T15:34:30.089Z,8.63
2023-12-16T15:37:08.579Z,8.60
2023-12-16T15:39:41.198Z,8.63
2023-12-16T15:42:08.830Z,8.61
2023-12-16T15:44:37.801Z,8.63
2023-12-16T15:49:52.608Z,8.51
2023-12-16T15:52:20.077Z,8.46
2023-12-16T15:54:48.271Z,8.30
2023-12-16T16:00:02.975Z,8.39
2023-12-16T16:02:33.992Z,8.48
2023-12-16T16:05:02.605Z,8.38
2023-12-16T16:07:33.310Z,8.33
2023-12-16T16:12:44.648Z,8.49
2023-12-16T16:15:17.446Z,8.32
2023-12-16T16:17:49.135Z,8.46
2023-12-16T16:20:17.366Z,8.31
2023-12-16T16:22:44.650Z,8.30
2023-12-16T16:25:12.867Z,8.13
2023-12-16T16:27:40.891Z,8.16
2023-12-16T16:30:19.348Z,8.14
2023-12-16T16:32:46.212Z,8.31
2023-12-16T16:35:13.988Z,8.38
2023-12-16T16:37:40.959Z,8.32
2023-12-16T16:40:08.729Z,8.29
2023-12-16T16:42:35.731Z,8.33
2023-12-16T16:45:05.179Z,8.20
2023-12-16T16:47:32.787Z,8.31
2023-12-16T16:50:00.149Z,8.25
2023-12-16T16:52:27.166Z,8.19
2023-12-16T16:54:53.919Z,8.29
2023-12-16T16:57:23.465Z,8.28
2023-12-16T17:00:05.820Z,8.21
2023-12-16T17:02:34.467Z,8.14
2023-12-16T17:05:01.383Z,7.97
2023-12-16T17:07:28.561Z,8.01
2023-12-16T17:09:55.524Z,7.97
2023-12-16T17:12:25.425Z,8.07
2023-12-16T17:14:52.524Z,8.08
2023-12-16T17:17:20.659Z,7.98
2023-12-16T17:19:48.397Z,7.89
2023-12-16T17:22:16.086Z,7.96
2023-12-16T17:24:43.025Z,8.12
2023-12-16T17:27:10.653Z,7.87
2023-12-16T17:29:38.247Z,7.84
2023-12-16T17:32:07.740Z,7.89
2023-12-16T17:34:35.811Z,7.96
2023-12-16T17:37:06.861Z,8.09
2023-12-16T17:39:33.591Z,8.13
2023-12-16T17:42:00.647Z,8.06
2023-12-16T17:44:27.743Z,8.09
2023-12-16T17:46:54.509Z,8.01
2023-12-16T17:49:22.899Z,8.08
2023-12-16T17:51:53.665Z,8.06
2023-12-16T17:54:26.656Z,7.98
2023-12-16T17:59:41.186Z,8.01
2023-12-16T18:02:11.171Z,7.97
2023-12-16T18:04:37.928Z,8.04
2023-12-16T18:07:04.954Z,8.01
2023-12-16T18:09:31.672Z,7.98
2023-12-16T18:11:59.066Z,7.85
2023-12-16T18:14:25.851Z,7.97
2023-12-16T18:16:54.333Z,7.95
2023-12-16T18:19:21.415Z,7.95
2023-12-16T18:21:51.597Z,7.81
2023-12-16T18:24:18.652Z,7.92
2023-12-16T18:26:46.983Z,7.89
2023-12-16T18:29:15.446Z,7.88
2023-12-16T18:31:42.749Z,7.88
2023-12-16T18:34:15.734Z,7.83
2023-12-16T18:36:43.213Z,7.84
2023-12-16T18:39:14.883Z,7.85
2023-12-16T18:44:23.507Z,7.84
2023-12-16T18:52:37.615Z,7.84
2023-12-16T19:00:33.916Z,7.73
2023-12-16T19:11:17.387Z,7.66
2023-12-16T19:29:58.678Z,7.48
2023-12-16T19:35:08.685Z,7.61
2023-12-16T19:45:42.996Z,7.47
2023-12-16T19:48:11.040Z,7.55
2023-12-16T19:50:44.321Z,7.58
2023-12-16T19:53:12.435Z,7.72
2023-12-16T19:55:40.858Z,7.69
2023-12-16T19:58:09.254Z,7.60
2023-12-16T20:00:37.631Z,7.68
2023-12-16T20:03:05.380Z,7.59
2023-12-16T20:05:33.128Z,7.63
2023-12-16T20:08:03.368Z,7.46
2023-12-16T20:10:33.100Z,7.42
2023-12-16T20:13:07.095Z,7.32
2023-12-16T20:15:33.977Z,7.48
2023-12-16T20:18:02.958Z,7.36
2023-12-16T20:23:21.935Z,7.37
2023-12-16T20:25:49.830Z,7.48
2023-12-16T20:28:17.182Z,7.43
2023-12-16T20:30:47.254Z,7.55
2023-12-16T20:33:17.398Z,7.32
2023-12-16T20:35:44.644Z,7.36
2023-12-16T20:38:31.627Z,7.35
2023-12-16T20:41:03.174Z,7.52
2023-12-16T20:43:34.305Z,7.32
2023-12-16T20:46:02.322Z,7.48
2023-12-16T20:48:30.420Z,7.42
2023-12-16T20:51:00.909Z,7.34
2023-12-16T20:53:29.338Z,7.31
2023-12-16T20:55:58.147Z,7.31
2023-12-16T20:58:25.188Z,7.30
2023-12-16T21:00:53.597Z,7.50
2023-12-16T21:03:21.123Z,7.33
2023-12-16T21:05:48.116Z,7.21
2023-12-16T21:08:17.152Z,7.35
2023-12-16T21:10:45.156Z,7.42
2023-12-16T21:13:14.972Z,7.30
2023-12-16T21:18:25.975Z,7.22
2023-12-16T21:20:53.214Z,7.30
2023-12-16T21:23:28.034Z,7.36
2023-12-16T21:25:57.881Z,7.30
2023-12-16T21:28:26.591Z,7.28
2023-12-16T21:36:14.382Z,7.36
2023-12-16T21:38:49.052Z,7.29
2023-12-16T21:41:20.353Z,7.15
2023-12-16T21:43:47.401Z,7.30
2023-12-16T21:46:15.604Z,7.29
2023-12-16T21:48:47.251Z,7.42
2023-12-16T21:51:14.449Z,7.43
2023-12-16T21:53:41.652Z,7.40
2023-12-16T21:56:09.578Z,7.37
2023-12-16T21:58:36.715Z,7.43
2023-12-16T22:01:04.501Z,7.36
2023-12-16T22:03:34.191Z,7.36
2023-12-16T22:06:01.879Z,7.44
2023-12-16T22:08:33.309Z,7.36
2023-12-16T22:11:06.115Z,7.39
2023-12-16T22:13:33.481Z,7.27
2023-12-16T22:16:01.689Z,7.16
2023-12-16T22:18:29.934Z,7.23
2023-12-16T22:20:58.133Z,7.27
2023-12-16T22:23:25.182Z,7.39
2023-12-16T22:25:52.248Z,7.29
2023-12-16T22:28:20.035Z,7.17
2023-12-16T22:30:47.745Z,7.35
2023-12-16T22:33:15.777Z,7.33
2023-12-16T22:35:42.940Z,7.41
2023-12-16T22:38:11.107Z,7.36
2023-12-16T22:43:19.284Z,7.39
2023-12-16T22:45:47.031Z,7.38
2023-12-16T22:50:57.407Z,7.39
2023-12-16T22:53:25.513Z,7.39
2023-12-16T22:55:52.457Z,7.33
2023-12-16T23:01:00.470Z,7.35
2023-12-16T23:03:29.947Z,7.34
2023-12-16T23:05:58.724Z,7.25
2023-12-16T23:08:25.464Z,7.28
2023-12-16T23:10:53.708Z,7.34
2023-12-16T23:13:21.035Z,7.32
2023-12-16T23:15:47.959Z,7.29
2023-12-16T23:18:15.781Z,7.24
2023-12-16T23:20:47.159Z,7.26
2023-12-16T23:23:15.277Z,7.26
2023-12-16T23:25:46.789Z,7.30
2023-12-16T23:28:13.741Z,7.25
2023-12-16T23:30:42.198Z,7.28
2023-12-16T23:33:09.395Z,7.25
2023-12-16T23:38:32.468Z,7.29
2023-12-16T23:41:02.939Z,6.99
2023-12-16T23:43:29.952Z,7.11
2023-12-16T23:46:00.522Z,7.18
2023-12-16T23:48:29.438Z,7.08
2023-12-16T23:50:56.429Z,7.07
2023-12-16T23:53:23.926Z,7.28
2023-12-16T23:55:52.046Z,7.12
